sensor_id;sensor_type;location;lat;lon;timestamp;temperature;humidity
44886;DHT22;36669;51.428;21.162;2023-07-09T00:00:15;17.40;99.90
44886;DHT22;36669;51.428;21.162;2023-07-09T00:02:41;17.20;99.90
44886;DHT22;36669;51.428;21.162;2023-07-09T00:05:10;17.10;99.90
44886;DHT22;36669;51.428;21.162;2023-07-09T00:07:36;17.20;99.90
44886;DHT22;36669;51.428;21.162;2023-07-09T00:10:02;17.10;99.90
44886;DHT22;36669;51.428;21.162;2023-07-09T00:12:28;17.20;99.90
44886;DHT22;36669;51.428;21.162;2023-07-09T00:14:53;17.20;99.90
44886;DHT22;36669;51.428;21.162;2023-07-09T00:17:27;17.20;99.90
44886;DHT22;36669;51.428;21.162;2023-07-09T00:19:54;17.20;99.90
44886;DHT22;36669;51.428;21.162;2023-07-09T00:22:20;17.10;99.90
44886;DHT22;36669;51.428;21.162;2023-07-09T00:24:49;17.00;99.90
44886;DHT22;36669;51.428;21.162;2023-07-09T00:27:18;17.10;99.90
44886;DHT22;36669;51.428;21.162;2023-07-09T00:29:44;17.10;99.90
44886;DHT22;36669;51.428;21.162;2023-07-09T00:32:15;17.00;99.90
44886;DHT22;36669;51.428;21.162;2023-07-09T00:34:45;16.90;99.90
44886;DHT22;36669;51.428;21.162;2023-07-09T00:37:18;16.90;99.90
44886;DHT22;36669;51.428;21.162;2023-07-09T00:39:45;16.90;99.90
44886;DHT22;36669;51.428;21.162;2023-07-09T00:42:19;16.90;99.90
44886;DHT22;36669;51.428;21.162;2023-07-09T00:44:50;16.90;99.90
44886;DHT22;36669;51.428;21.162;2023-07-09T00:47:28;16.90;99.90
44886;DHT22;36669;51.428;21.162;2023-07-09T00:50:08;16.90;99.90
44886;DHT22;36669;51.428;21.162;2023-07-09T00:52:40;17.10;99.90
44886;DHT22;36669;51.428;21.162;2023-07-09T00:55:12;17.30;99.90
44886;DHT22;36669;51.428;21.162;2023-07-09T00:57:40;17.40;99.90
44886;DHT22;36669;51.428;21.162;2023-07-09T01:00:10;17.60;99.90
44886;DHT22;36669;51.428;21.162;2023-07-09T01:02:43;17.70;99.90
44886;DHT22;36669;51.428;21.162;2023-07-09T01:05:12;17.70;99.90
44886;DHT22;36669;51.428;21.162;2023-07-09T01:07:38;17.70;99.90
44886;DHT22;36669;51.428;21.162;2023-07-09T01:10:04;17.60;99.90
44886;DHT22;36669;51.428;21.162;2023-07-09T01:12:30;17.40;99.90
44886;DHT22;36669;51.428;21.162;2023-07-09T01:14:57;17.30;99.90
44886;DHT22;36669;51.428;21.162;2023-07-09T01:17:28;17.20;99.90
44886;DHT22;36669;51.428;21.162;2023-07-09T01:19:54;17.10;99.90
44886;DHT22;36669;51.428;21.162;2023-07-09T01:22:22;17.00;99.90
44886;DHT22;36669;51.428;21.162;2023-07-09T01:25:06;16.90;99.90
44886;DHT22;36669;51.428;21.162;2023-07-09T01:27:44;16.80;99.90
44886;DHT22;36669;51.428;21.162;2023-07-09T01:30:21;16.70;99.90
44886;DHT22;36669;51.428;21.162;2023-07-09T01:32:48;16.70;99.90
44886;DHT22;36669;51.428;21.162;2023-07-09T01:35:17;16.70;99.90
44886;DHT22;36669;51.428;21.162;2023-07-09T01:37:44;16.80;99.90
44886;DHT22;36669;51.428;21.162;2023-07-09T01:40:11;16.90;99.90
44886;DHT22;36669;51.428;21.162;2023-07-09T01:42:38;16.80;99.90
44886;DHT22;36669;51.428;21.162;2023-07-09T01:45:05;16.70;99.90
44886;DHT22;36669;51.428;21.162;2023-07-09T01:47:31;16.50;99.90
44886;DHT22;36669;51.428;21.162;2023-07-09T01:49:57;16.40;99.90
44886;DHT22;36669;51.428;21.162;2023-07-09T01:52:29;16.50;99.90
44886;DHT22;36669;51.428;21.162;2023-07-09T01:54:55;16.40;99.90
44886;DHT22;36669;51.428;21.162;2023-07-09T01:57:28;16.30;99.90
44886;DHT22;36669;51.428;21.162;2023-07-09T02:00:06;16.20;99.90
44886;DHT22;36669;51.428;21.162;2023-07-09T02:02:34;16.10;99.90
44886;DHT22;36669;51.428;21.162;2023-07-09T02:05:01;15.90;99.90
44886;DHT22;36669;51.428;21.162;2023-07-09T02:07:27;15.80;99.90
44886;DHT22;36669;51.428;21.162;2023-07-09T02:09:53;15.80;99.90
44886;DHT22;36669;51.428;21.162;2023-07-09T02:12:19;15.70;99.90
44886;DHT22;36669;51.428;21.162;2023-07-09T02:14:46;15.70;99.90
44886;DHT22;36669;51.428;21.162;2023-07-09T02:17:13;15.70;99.90
44886;DHT22;36669;51.428;21.162;2023-07-09T02:19:39;15.60;99.90
44886;DHT22;36669;51.428;21.162;2023-07-09T02:22:06;15.70;99.90
44886;DHT22;36669;51.428;21.162;2023-07-09T02:24:32;15.60;99.90
44886;DHT22;36669;51.428;21.162;2023-07-09T02:27:00;15.60;99.90
44886;DHT22;36669;51.428;21.162;2023-07-09T02:29:27;15.50;99.90
44886;DHT22;36669;51.428;21.162;2023-07-09T02:31:55;15.40;99.90
44886;DHT22;36669;51.428;21.162;2023-07-09T02:34:21;15.50;99.90
44886;DHT22;36669;51.428;21.162;2023-07-09T02:36:53;15.60;99.90
44886;DHT22;36669;51.428;21.162;2023-07-09T02:39:19;15.60;99.90
44886;DHT22;36669;51.428;21.162;2023-07-09T02:41:45;15.80;99.90
44886;DHT22;36669;51.428;21.162;2023-07-09T02:44:11;15.90;99.90
44886;DHT22;36669;51.428;21.162;2023-07-09T02:46:37;16.00;99.90
44886;DHT22;36669;51.428;21.162;2023-07-09T02:49:04;15.90;99.90
44886;DHT22;36669;51.428;21.162;2023-07-09T02:51:30;15.90;99.90
44886;DHT22;36669;51.428;21.162;2023-07-09T02:53:57;15.90;99.90
44886;DHT22;36669;51.428;21.162;2023-07-09T02:56:24;15.80;99.90
44886;DHT22;36669;51.428;21.162;2023-07-09T02:58:50;15.90;99.90
44886;DHT22;36669;51.428;21.162;2023-07-09T03:01:16;15.80;99.90
44886;DHT22;36669;51.428;21.162;2023-07-09T03:03:42;15.80;99.90
44886;DHT22;36669;51.428;21.162;2023-07-09T03:06:08;15.80;99.90
44886;DHT22;36669;51.428;21.162;2023-07-09T03:08:34;15.70;99.90
44886;DHT22;36669;51.428;21.162;2023-07-09T03:11:02;15.70;99.90
44886;DHT22;36669;51.428;21.162;2023-07-09T03:13:33;15.60;99.90
44886;DHT22;36669;51.428;21.162;2023-07-09T03:15:58;15.60;99.90
44886;DHT22;36669;51.428;21.162;2023-07-09T03:18:24;15.60;99.90
44886;DHT22;36669;51.428;21.162;2023-07-09T03:20:50;15.50;99.90
44886;DHT22;36669;51.428;21.162;2023-07-09T03:23:16;15.50;99.90
44886;DHT22;36669;51.428;21.162;2023-07-09T03:25:43;15.40;99.90
44886;DHT22;36669;51.428;21.162;2023-07-09T03:28:10;15.40;99.90
44886;DHT22;36669;51.428;21.162;2023-07-09T03:30:43;15.30;99.90
44886;DHT22;36669;51.428;21.162;2023-07-09T03:33:09;15.20;99.90
44886;DHT22;36669;51.428;21.162;2023-07-09T03:35:35;15.20;99.90
44886;DHT22;36669;51.428;21.162;2023-07-09T03:38:02;15.20;99.90
44886;DHT22;36669;51.428;21.162;2023-07-09T03:40:27;15.10;99.90
44886;DHT22;36669;51.428;21.162;2023-07-09T03:42:53;15.10;99.90
44886;DHT22;36669;51.428;21.162;2023-07-09T03:45:19;15.10;99.90
44886;DHT22;36669;51.428;21.162;2023-07-09T03:47:44;15.10;99.90
44886;DHT22;36669;51.428;21.162;2023-07-09T03:50:10;15.30;99.90
44886;DHT22;36669;51.428;21.162;2023-07-09T03:52:37;15.40;99.90
44886;DHT22;36669;51.428;21.162;2023-07-09T03:55:02;15.40;99.90
44886;DHT22;36669;51.428;21.162;2023-07-09T03:57:30;15.50;99.90
44886;DHT22;36669;51.428;21.162;2023-07-09T03:59:56;15.50;99.90
44886;DHT22;36669;51.428;21.162;2023-07-09T04:02:21;15.60;99.90
44886;DHT22;36669;51.428;21.162;2023-07-09T04:04:47;15.60;99.90
44886;DHT22;36669;51.428;21.162;2023-07-09T04:07:13;15.70;99.90
44886;DHT22;36669;51.428;21.162;2023-07-09T04:09:38;15.70;99.90
44886;DHT22;36669;51.428;21.162;2023-07-09T04:12:05;15.80;99.90
44886;DHT22;36669;51.428;21.162;2023-07-09T04:14:31;15.80;99.90
44886;DHT22;36669;51.428;21.162;2023-07-09T04:16:56;15.90;99.90
44886;DHT22;36669;51.428;21.162;2023-07-09T04:19:23;15.90;99.90
44886;DHT22;36669;51.428;21.162;2023-07-09T04:21:48;16.00;99.90
44886;DHT22;36669;51.428;21.162;2023-07-09T04:24:16;16.00;99.90
44886;DHT22;36669;51.428;21.162;2023-07-09T04:26:42;16.00;99.90
44886;DHT22;36669;51.428;21.162;2023-07-09T04:29:08;16.10;99.90
44886;DHT22;36669;51.428;21.162;2023-07-09T04:31:34;16.10;99.90
44886;DHT22;36669;51.428;21.162;2023-07-09T04:33:59;16.20;99.90
44886;DHT22;36669;51.428;21.162;2023-07-09T04:36:25;16.30;99.90
44886;DHT22;36669;51.428;21.162;2023-07-09T04:38:51;16.30;99.90
44886;DHT22;36669;51.428;21.162;2023-07-09T04:41:17;16.40;99.90
44886;DHT22;36669;51.428;21.162;2023-07-09T04:43:43;16.50;99.90
44886;DHT22;36669;51.428;21.162;2023-07-09T04:46:08;16.50;99.90
44886;DHT22;36669;51.428;21.162;2023-07-09T04:48:34;16.60;99.90
44886;DHT22;36669;51.428;21.162;2023-07-09T04:51:00;16.60;99.90
44886;DHT22;36669;51.428;21.162;2023-07-09T04:53:26;16.70;99.90
44886;DHT22;36669;51.428;21.162;2023-07-09T04:55:52;16.80;99.90
44886;DHT22;36669;51.428;21.162;2023-07-09T04:58:18;16.80;99.90
44886;DHT22;36669;51.428;21.162;2023-07-09T05:00:44;16.90;99.90
44886;DHT22;36669;51.428;21.162;2023-07-09T05:03:11;16.90;99.90
44886;DHT22;36669;51.428;21.162;2023-07-09T05:05:45;16.90;99.90
44886;DHT22;36669;51.428;21.162;2023-07-09T05:08:12;17.00;99.90
44886;DHT22;36669;51.428;21.162;2023-07-09T05:10:48;17.10;99.90
44886;DHT22;36669;51.428;21.162;2023-07-09T05:13:15;17.20;99.90
44886;DHT22;36669;51.428;21.162;2023-07-09T05:15:42;17.20;99.90
44886;DHT22;36669;51.428;21.162;2023-07-09T05:18:08;17.30;99.90
44886;DHT22;36669;51.428;21.162;2023-07-09T05:20:34;17.30;99.90
44886;DHT22;36669;51.428;21.162;2023-07-09T05:23:00;17.40;99.90
44886;DHT22;36669;51.428;21.162;2023-07-09T05:25:26;17.50;99.90
44886;DHT22;36669;51.428;21.162;2023-07-09T05:27:51;17.70;99.90
44886;DHT22;36669;51.428;21.162;2023-07-09T05:30:18;17.80;99.90
44886;DHT22;36669;51.428;21.162;2023-07-09T05:32:43;17.90;99.90
44886;DHT22;36669;51.428;21.162;2023-07-09T05:35:09;17.90;99.90
44886;DHT22;36669;51.428;21.162;2023-07-09T05:37:36;18.00;99.90
44886;DHT22;36669;51.428;21.162;2023-07-09T05:40:02;18.00;99.90
44886;DHT22;36669;51.428;21.162;2023-07-09T05:42:29;18.10;99.90
44886;DHT22;36669;51.428;21.162;2023-07-09T05:44:55;18.20;99.90
44886;DHT22;36669;51.428;21.162;2023-07-09T05:47:21;18.20;99.90
44886;DHT22;36669;51.428;21.162;2023-07-09T05:49:46;18.30;99.90
44886;DHT22;36669;51.428;21.162;2023-07-09T05:52:15;18.20;99.90
44886;DHT22;36669;51.428;21.162;2023-07-09T05:54:41;18.30;99.90
44886;DHT22;36669;51.428;21.162;2023-07-09T05:57:06;18.40;99.90
44886;DHT22;36669;51.428;21.162;2023-07-09T05:59:32;18.50;99.90
44886;DHT22;36669;51.428;21.162;2023-07-09T06:01:58;18.70;99.90
44886;DHT22;36669;51.428;21.162;2023-07-09T06:04:25;18.70;99.90
44886;DHT22;36669;51.428;21.162;2023-07-09T06:06:52;18.90;99.90
44886;DHT22;36669;51.428;21.162;2023-07-09T06:09:17;19.00;99.90
44886;DHT22;36669;51.428;21.162;2023-07-09T06:11:43;19.00;99.90
44886;DHT22;36669;51.428;21.162;2023-07-09T06:14:09;19.10;99.90
44886;DHT22;36669;51.428;21.162;2023-07-09T06:16:35;19.20;99.90
44886;DHT22;36669;51.428;21.162;2023-07-09T06:19:00;19.30;99.90
44886;DHT22;36669;51.428;21.162;2023-07-09T06:21:26;19.40;99.90
44886;DHT22;36669;51.428;21.162;2023-07-09T06:23:51;19.40;99.90
44886;DHT22;36669;51.428;21.162;2023-07-09T06:26:17;19.50;99.90
44886;DHT22;36669;51.428;21.162;2023-07-09T06:28:43;19.60;99.90
44886;DHT22;36669;51.428;21.162;2023-07-09T06:31:09;19.80;99.90
44886;DHT22;36669;51.428;21.162;2023-07-09T06:33:34;19.90;99.90
44886;DHT22;36669;51.428;21.162;2023-07-09T06:36:01;20.00;99.90
44886;DHT22;36669;51.428;21.162;2023-07-09T06:38:28;20.20;99.90
44886;DHT22;36669;51.428;21.162;2023-07-09T06:40:54;20.30;99.90
44886;DHT22;36669;51.428;21.162;2023-07-09T06:43:20;20.40;99.90
44886;DHT22;36669;51.428;21.162;2023-07-09T06:45:57;20.50;99.90
44886;DHT22;36669;51.428;21.162;2023-07-09T06:48:24;20.60;99.90
44886;DHT22;36669;51.428;21.162;2023-07-09T06:50:52;20.70;99.90
44886;DHT22;36669;51.428;21.162;2023-07-09T06:53:19;20.80;99.90
44886;DHT22;36669;51.428;21.162;2023-07-09T06:55:45;20.90;99.90
44886;DHT22;36669;51.428;21.162;2023-07-09T06:58:11;21.10;99.90
44886;DHT22;36669;51.428;21.162;2023-07-09T07:00:37;21.20;99.90
44886;DHT22;36669;51.428;21.162;2023-07-09T07:03:04;21.30;99.90
44886;DHT22;36669;51.428;21.162;2023-07-09T07:05:30;21.40;99.90
44886;DHT22;36669;51.428;21.162;2023-07-09T07:07:56;21.50;99.90
44886;DHT22;36669;51.428;21.162;2023-07-09T07:10:23;21.60;99.90
44886;DHT22;36669;51.428;21.162;2023-07-09T07:12:48;21.70;99.90
44886;DHT22;36669;51.428;21.162;2023-07-09T07:15:17;21.90;99.90
44886;DHT22;36669;51.428;21.162;2023-07-09T07:17:43;22.00;99.90
44886;DHT22;36669;51.428;21.162;2023-07-09T07:20:10;22.10;99.90
44886;DHT22;36669;51.428;21.162;2023-07-09T07:22:37;22.20;99.90
44886;DHT22;36669;51.428;21.162;2023-07-09T07:25:04;22.30;99.90
44886;DHT22;36669;51.428;21.162;2023-07-09T07:27:30;22.40;99.90
44886;DHT22;36669;51.428;21.162;2023-07-09T07:29:56;22.50;99.90
44886;DHT22;36669;51.428;21.162;2023-07-09T07:32:22;22.60;99.90
44886;DHT22;36669;51.428;21.162;2023-07-09T07:34:48;22.60;99.90
44886;DHT22;36669;51.428;21.162;2023-07-09T07:37:14;22.70;99.90
44886;DHT22;36669;51.428;21.162;2023-07-09T07:39:39;22.80;99.90
44886;DHT22;36669;51.428;21.162;2023-07-09T07:42:06;22.90;99.90
44886;DHT22;36669;51.428;21.162;2023-07-09T07:44:32;22.90;99.90
44886;DHT22;36669;51.428;21.162;2023-07-09T07:46:57;23.00;99.90
44886;DHT22;36669;51.428;21.162;2023-07-09T07:49:23;23.10;99.90
44886;DHT22;36669;51.428;21.162;2023-07-09T07:51:49;23.20;99.90
44886;DHT22;36669;51.428;21.162;2023-07-09T07:54:14;23.20;99.90
44886;DHT22;36669;51.428;21.162;2023-07-09T07:56:41;23.30;99.90
44886;DHT22;36669;51.428;21.162;2023-07-09T07:59:07;23.40;99.90
44886;DHT22;36669;51.428;21.162;2023-07-09T08:01:32;23.40;99.90
44886;DHT22;36669;51.428;21.162;2023-07-09T08:04:03;23.40;99.90
44886;DHT22;36669;51.428;21.162;2023-07-09T08:06:29;23.50;99.90
44886;DHT22;36669;51.428;21.162;2023-07-09T08:08:57;23.50;99.90
44886;DHT22;36669;51.428;21.162;2023-07-09T08:11:23;23.60;99.90
44886;DHT22;36669;51.428;21.162;2023-07-09T08:13:49;23.80;99.90
44886;DHT22;36669;51.428;21.162;2023-07-09T08:16:15;23.90;99.90
44886;DHT22;36669;51.428;21.162;2023-07-09T08:18:41;23.90;99.90
44886;DHT22;36669;51.428;21.162;2023-07-09T08:21:06;24.10;99.90
44886;DHT22;36669;51.428;21.162;2023-07-09T08:23:32;24.10;99.90
44886;DHT22;36669;51.428;21.162;2023-07-09T08:25:59;24.20;99.90
44886;DHT22;36669;51.428;21.162;2023-07-09T08:28:27;24.10;99.90
44886;DHT22;36669;51.428;21.162;2023-07-09T08:30:53;24.10;99.90
44886;DHT22;36669;51.428;21.162;2023-07-09T08:33:19;24.20;99.90
44886;DHT22;36669;51.428;21.162;2023-07-09T08:35:45;24.30;99.90
44886;DHT22;36669;51.428;21.162;2023-07-09T08:38:10;24.30;99.90
44886;DHT22;36669;51.428;21.162;2023-07-09T08:40:40;24.40;99.90
44886;DHT22;36669;51.428;21.162;2023-07-09T08:43:32;24.50;99.40
44886;DHT22;36669;51.428;21.162;2023-07-09T08:46:05;24.60;96.50
44886;DHT22;36669;51.428;21.162;2023-07-09T08:48:34;24.60;95.80
44886;DHT22;36669;51.428;21.162;2023-07-09T08:51:20;24.70;95.00
44886;DHT22;36669;51.428;21.162;2023-07-09T08:53:54;24.60;94.20
44886;DHT22;36669;51.428;21.162;2023-07-09T08:56:22;24.50;95.20
44886;DHT22;36669;51.428;21.162;2023-07-09T08:58:49;24.60;94.60
44886;DHT22;36669;51.428;21.162;2023-07-09T09:01:22;24.60;94.50
44886;DHT22;36669;51.428;21.162;2023-07-09T09:03:53;24.60;94.70
44886;DHT22;36669;51.428;21.162;2023-07-09T09:06:26;24.80;95.40
44886;DHT22;36669;51.428;21.162;2023-07-09T09:09:03;24.90;93.20
44886;DHT22;36669;51.428;21.162;2023-07-09T09:11:48;25.00;93.70
44886;DHT22;36669;51.428;21.162;2023-07-09T09:14:27;25.10;92.50
44886;DHT22;36669;51.428;21.162;2023-07-09T09:16:56;25.10;91.60
44886;DHT22;36669;51.428;21.162;2023-07-09T09:19:33;25.10;91.50
44886;DHT22;36669;51.428;21.162;2023-07-09T09:22:06;25.10;91.60
44886;DHT22;36669;51.428;21.162;2023-07-09T09:24:41;25.20;91.60
44886;DHT22;36669;51.428;21.162;2023-07-09T09:27:12;25.20;91.60
44886;DHT22;36669;51.428;21.162;2023-07-09T09:29:37;25.20;91.00
44886;DHT22;36669;51.428;21.162;2023-07-09T09:32:18;25.20;91.40
44886;DHT22;36669;51.428;21.162;2023-07-09T09:34:45;25.20;88.70
44886;DHT22;36669;51.428;21.162;2023-07-09T09:37:11;25.30;87.80
44886;DHT22;36669;51.428;21.162;2023-07-09T09:39:38;25.20;88.20
44886;DHT22;36669;51.428;21.162;2023-07-09T09:42:10;25.30;87.10
44886;DHT22;36669;51.428;21.162;2023-07-09T09:44:42;25.20;85.30
44886;DHT22;36669;51.428;21.162;2023-07-09T09:47:10;25.20;85.00
44886;DHT22;36669;51.428;21.162;2023-07-09T09:49:43;25.30;84.60
44886;DHT22;36669;51.428;21.162;2023-07-09T09:52:30;25.30;85.10
44886;DHT22;36669;51.428;21.162;2023-07-09T09:55:03;25.40;86.60
44886;DHT22;36669;51.428;21.162;2023-07-09T09:57:34;25.40;85.40
44886;DHT22;36669;51.428;21.162;2023-07-09T09:59:59;25.50;84.40
44886;DHT22;36669;51.428;21.162;2023-07-09T10:02:25;25.60;84.40
44886;DHT22;36669;51.428;21.162;2023-07-09T10:04:51;25.60;83.70
44886;DHT22;36669;51.428;21.162;2023-07-09T10:07:22;25.50;82.60
44886;DHT22;36669;51.428;21.162;2023-07-09T10:09:53;25.60;81.30
44886;DHT22;36669;51.428;21.162;2023-07-09T10:18:11;25.90;81.30
44886;DHT22;36669;51.428;21.162;2023-07-09T10:20:49;26.10;81.20
44886;DHT22;36669;51.428;21.162;2023-07-09T10:26:13;26.40;79.90
44886;DHT22;36669;51.428;21.162;2023-07-09T10:32:36;26.40;77.80
44886;DHT22;36669;51.428;21.162;2023-07-09T10:34:33;26.30;75.80
44886;DHT22;36669;51.428;21.162;2023-07-09T10:39:50;26.70;73.00
44886;DHT22;36669;51.428;21.162;2023-07-09T10:42:32;26.90;73.70
44886;DHT22;36669;51.428;21.162;2023-07-09T10:45:26;26.70;69.40
44886;DHT22;36669;51.428;21.162;2023-07-09T10:48:05;26.50;72.00
44886;DHT22;36669;51.428;21.162;2023-07-09T10:50:41;26.80;71.70
44886;DHT22;36669;51.428;21.162;2023-07-09T10:53:28;26.70;70.90
44886;DHT22;36669;51.428;21.162;2023-07-09T10:56:22;26.90;71.80
44886;DHT22;36669;51.428;21.162;2023-07-09T10:59:03;26.90;71.00
44886;DHT22;36669;51.428;21.162;2023-07-09T11:01:50;27.20;69.50
44886;DHT22;36669;51.428;21.162;2023-07-09T11:04:29;27.20;67.20
44886;DHT22;36669;51.428;21.162;2023-07-09T11:06:59;27.30;67.40
44886;DHT22;36669;51.428;21.162;2023-07-09T11:09:40;27.10;66.60
44886;DHT22;36669;51.428;21.162;2023-07-09T11:12:34;27.40;67.20
44886;DHT22;36669;51.428;21.162;2023-07-09T11:15:09;27.20;64.50
44886;DHT22;36669;51.428;21.162;2023-07-09T11:17:39;27.10;63.10
44886;DHT22;36669;51.428;21.162;2023-07-09T11:22:54;27.20;59.90
44886;DHT22;36669;51.428;21.162;2023-07-09T11:25:42;27.40;59.40
44886;DHT22;36669;51.428;21.162;2023-07-09T11:28:08;27.50;59.60
44886;DHT22;36669;51.428;21.162;2023-07-09T11:30:49;27.30;59.40
44886;DHT22;36669;51.428;21.162;2023-07-09T11:33:18;27.30;60.90
44886;DHT22;36669;51.428;21.162;2023-07-09T11:35:49;27.40;60.10
44886;DHT22;36669;51.428;21.162;2023-07-09T11:38:24;27.40;60.60
44886;DHT22;36669;51.428;21.162;2023-07-09T11:40:54;27.50;61.00
44886;DHT22;36669;51.428;21.162;2023-07-09T11:43:47;27.80;61.30
44886;DHT22;36669;51.428;21.162;2023-07-09T11:46:18;27.70;59.40
44886;DHT22;36669;51.428;21.162;2023-07-09T11:48:46;27.70;59.00
44886;DHT22;36669;51.428;21.162;2023-07-09T11:51:17;27.60;60.10
44886;DHT22;36669;51.428;21.162;2023-07-09T11:53:55;27.60;60.60
44886;DHT22;36669;51.428;21.162;2023-07-09T11:56:22;27.90;59.50
44886;DHT22;36669;51.428;21.162;2023-07-09T11:58:55;28.00;58.80
44886;DHT22;36669;51.428;21.162;2023-07-09T12:01:26;28.10;58.50
44886;DHT22;36669;51.428;21.162;2023-07-09T12:03:53;28.10;59.10
44886;DHT22;36669;51.428;21.162;2023-07-09T12:06:30;28.30;59.30
44886;DHT22;36669;51.428;21.162;2023-07-09T12:08:57;28.60;58.10
44886;DHT22;36669;51.428;21.162;2023-07-09T12:11:30;28.60;57.80
44886;DHT22;36669;51.428;21.162;2023-07-09T12:14:10;28.50;57.20
44886;DHT22;36669;51.428;21.162;2023-07-09T12:16:57;28.10;57.10
44886;DHT22;36669;51.428;21.162;2023-07-09T12:19:24;28.50;57.70
44886;DHT22;36669;51.428;21.162;2023-07-09T12:21:57;28.80;57.50
44886;DHT22;36669;51.428;21.162;2023-07-09T12:24:30;28.70;56.90
44886;DHT22;36669;51.428;21.162;2023-07-09T12:27:15;29.00;56.10
44886;DHT22;36669;51.428;21.162;2023-07-09T12:29:43;29.20;54.60
44886;DHT22;36669;51.428;21.162;2023-07-09T12:32:15;29.00;55.00
44886;DHT22;36669;51.428;21.162;2023-07-09T12:34:47;29.00;54.60
44886;DHT22;36669;51.428;21.162;2023-07-09T12:37:15;29.00;54.10
44886;DHT22;36669;51.428;21.162;2023-07-09T12:39:42;29.00;54.70
44886;DHT22;36669;51.428;21.162;2023-07-09T12:42:33;29.10;53.90
44886;DHT22;36669;51.428;21.162;2023-07-09T12:45:02;29.40;53.20
44886;DHT22;36669;51.428;21.162;2023-07-09T12:47:30;29.60;52.20
44886;DHT22;36669;51.428;21.162;2023-07-09T12:50:15;29.60;52.00
44886;DHT22;36669;51.428;21.162;2023-07-09T12:52:55;29.80;52.10
44886;DHT22;36669;51.428;21.162;2023-07-09T12:55:25;29.70;52.10
44886;DHT22;36669;51.428;21.162;2023-07-09T12:58:07;29.80;50.20
44886;DHT22;36669;51.428;21.162;2023-07-09T13:00:36;30.00;49.60
44886;DHT22;36669;51.428;21.162;2023-07-09T13:03:03;30.30;49.60
44886;DHT22;36669;51.428;21.162;2023-07-09T13:05:37;30.70;48.30
44886;DHT22;36669;51.428;21.162;2023-07-09T13:08:04;31.10;47.70
44886;DHT22;36669;51.428;21.162;2023-07-09T13:10:41;30.70;46.40
44886;DHT22;36669;51.428;21.162;2023-07-09T13:13:13;30.20;47.50
44886;DHT22;36669;51.428;21.162;2023-07-09T13:16:06;30.40;48.10
44886;DHT22;36669;51.428;21.162;2023-07-09T13:18:33;30.90;47.20
44886;DHT22;36669;51.428;21.162;2023-07-09T13:21:00;31.00;46.60
44886;DHT22;36669;51.428;21.162;2023-07-09T13:23:29;30.90;46.10
44886;DHT22;36669;51.428;21.162;2023-07-09T13:25:56;30.90;46.40
44886;DHT22;36669;51.428;21.162;2023-07-09T13:28:36;30.80;46.20
44886;DHT22;36669;51.428;21.162;2023-07-09T13:31:23;31.10;46.50
44886;DHT22;36669;51.428;21.162;2023-07-09T13:34:00;31.30;46.10
44886;DHT22;36669;51.428;21.162;2023-07-09T13:36:26;31.50;46.50
44886;DHT22;36669;51.428;21.162;2023-07-09T13:38:53;30.90;46.90
44886;DHT22;36669;51.428;21.162;2023-07-09T13:41:21;31.10;47.20
44886;DHT22;36669;51.428;21.162;2023-07-09T13:43:49;31.30;46.60
44886;DHT22;36669;51.428;21.162;2023-07-09T13:46:18;31.80;47.10
44886;DHT22;36669;51.428;21.162;2023-07-09T13:48:45;32.20;45.90
44886;DHT22;36669;51.428;21.162;2023-07-09T13:51:29;32.40;45.40
44886;DHT22;36669;51.428;21.162;2023-07-09T13:53:56;32.90;45.00
44886;DHT22;36669;51.428;21.162;2023-07-09T13:56:23;33.70;43.10
44886;DHT22;36669;51.428;21.162;2023-07-09T13:58:50;34.20;42.20
44886;DHT22;36669;51.428;21.162;2023-07-09T14:01:21;34.80;41.90
44886;DHT22;36669;51.428;21.162;2023-07-09T14:03:47;34.90;41.70
44886;DHT22;36669;51.428;21.162;2023-07-09T14:06:15;34.90;41.50
44886;DHT22;36669;51.428;21.162;2023-07-09T14:08:41;35.40;41.90
44886;DHT22;36669;51.428;21.162;2023-07-09T14:11:11;36.00;40.40
44886;DHT22;36669;51.428;21.162;2023-07-09T14:13:38;36.10;39.50
44886;DHT22;36669;51.428;21.162;2023-07-09T14:16:04;35.20;39.80
44886;DHT22;36669;51.428;21.162;2023-07-09T14:18:29;35.00;39.20
44886;DHT22;36669;51.428;21.162;2023-07-09T14:20:56;34.70;39.20
44886;DHT22;36669;51.428;21.162;2023-07-09T14:23:22;34.80;39.40
44886;DHT22;36669;51.428;21.162;2023-07-09T14:25:48;35.00;39.30
44886;DHT22;36669;51.428;21.162;2023-07-09T14:28:20;34.70;39.60
44886;DHT22;36669;51.428;21.162;2023-07-09T14:30:49;34.60;39.30
44886;DHT22;36669;51.428;21.162;2023-07-09T14:33:19;35.10;38.90
44886;DHT22;36669;51.428;21.162;2023-07-09T14:35:46;35.40;38.20
44886;DHT22;36669;51.428;21.162;2023-07-09T14:38:26;35.20;37.80
44886;DHT22;36669;51.428;21.162;2023-07-09T14:40:53;35.20;37.60
44886;DHT22;36669;51.428;21.162;2023-07-09T14:43:20;34.90;38.00
44886;DHT22;36669;51.428;21.162;2023-07-09T14:45:47;35.30;38.50
44886;DHT22;36669;51.428;21.162;2023-07-09T14:48:15;35.80;37.30
44886;DHT22;36669;51.428;21.162;2023-07-09T14:50:42;36.10;37.60
44886;DHT22;36669;51.428;21.162;2023-07-09T14:53:24;36.00;37.40
44886;DHT22;36669;51.428;21.162;2023-07-09T14:55:51;36.70;38.30
44886;DHT22;36669;51.428;21.162;2023-07-09T14:58:20;36.60;37.20
44886;DHT22;36669;51.428;21.162;2023-07-09T15:00:46;36.10;37.50
44886;DHT22;36669;51.428;21.162;2023-07-09T15:03:21;35.00;38.00
44886;DHT22;36669;51.428;21.162;2023-07-09T15:05:48;34.70;38.80
44886;DHT22;36669;51.428;21.162;2023-07-09T15:08:19;35.00;38.40
44886;DHT22;36669;51.428;21.162;2023-07-09T15:10:47;34.50;39.20
44886;DHT22;36669;51.428;21.162;2023-07-09T15:13:25;34.10;39.30
44886;DHT22;36669;51.428;21.162;2023-07-09T15:15:52;34.70;38.30
44886;DHT22;36669;51.428;21.162;2023-07-09T15:18:18;34.60;38.40
44886;DHT22;36669;51.428;21.162;2023-07-09T15:20:51;35.60;38.20
44886;DHT22;36669;51.428;21.162;2023-07-09T15:23:18;35.50;37.50
44886;DHT22;36669;51.428;21.162;2023-07-09T15:25:44;35.60;37.30
44886;DHT22;36669;51.428;21.162;2023-07-09T15:28:11;34.90;38.50
44886;DHT22;36669;51.428;21.162;2023-07-09T15:30:37;35.00;38.30
44886;DHT22;36669;51.428;21.162;2023-07-09T15:33:04;34.60;38.80
44886;DHT22;36669;51.428;21.162;2023-07-09T15:35:34;34.60;38.90
44886;DHT22;36669;51.428;21.162;2023-07-09T15:40:48;34.50;38.40
44886;DHT22;36669;51.428;21.162;2023-07-09T15:43:14;35.20;39.10
44886;DHT22;36669;51.428;21.162;2023-07-09T15:45:49;35.20;38.40
44886;DHT22;36669;51.428;21.162;2023-07-09T15:48:35;34.40;38.30